Time;durP1;ratioP1;P1;durP2;ratioP2;P2;SDS_P1;SDS_P2;PMS_P1;PMS_P2;Temp;Humidity;BMP_temperature;BMP_pressure;BME280_temperature;BME280_humidity;BME280_pressure;Samples;Min_cycle;Max_cycle;Signal;HPM_P1;HPM_P2
2023/03/30 00:01:00;;;;;;;3.40;2.67;;;;;;;;;;5095364;28;20202;-84
2023/03/30 00:03:29;;;;;;;6.03;2.40;;;;;;;;;;5095386;28;20201;-84
2023/03/30 00:06:03;;;;;;;4.67;2.47;;;;;;;;;;5095304;28;20258;-84
2023/03/30 00:08:33;;;;;;;11.07;3.73;;;;;;;;;;5094785;28;20239;-84
2023/03/30 00:11:02;;;;;;;8.33;3.30;;;;;;;;;;5095415;28;20317;-84
2023/03/30 00:13:32;;;;;;;3.00;2.60;;;;;;;;;;5095331;28;20198;-84
2023/03/30 00:16:01;;;;;;;9.97;3.07;;;;;;;;;;5095039;28;20203;-84
2023/03/30 00:18:29;;;;;;;1.90;1.60;;;;;;;;;;5095242;28;20239;-84
2023/03/30 00:20:58;;;;;;;1.70;1.40;;;;;;;;;;5095150;28;20194;-84
2023/03/30 00:23:27;;;;;;;2.93;1.73;;;;;;;;;;5094952;28;20289;-84
2023/03/30 00:25:56;;;;;;;6.00;4.03;;;;;;;;;;5095288;28;20224;-84
2023/03/30 00:28:25;;;;;;;9.30;3.33;;;;;;;;;;5094993;28;20218;-84
2023/03/30 00:30:54;;;;;;;3.33;1.87;;;;;;;;;;5094935;28;20199;-84
2023/03/30 00:33:23;;;;;;;3.23;2.60;;;;;;;;;;5094823;28;20189;-83
2023/03/30 00:36:09;;;;;;;2.27;1.90;;;;;;;;;;5094786;28;20229;-84
2023/03/30 00:38:39;;;;;;;7.17;3.30;;;;;;;;;;5094434;28;20195;-84
2023/03/30 00:41:09;;;;;;;4.23;1.90;;;;;;;;;;5094607;28;20204;-84
2023/03/30 00:43:52;;;;;;;6.13;2.70;;;;;;;;;;5094154;28;20234;-84
2023/03/30 00:46:21;;;;;;;4.60;2.37;;;;;;;;;;5094293;28;20190;-82
2023/03/30 00:48:50;;;;;;;5.60;2.40;;;;;;;;;;5094827;28;20221;-82
2023/03/30 00:51:19;;;;;;;8.27;2.80;;;;;;;;;;5094567;28;20208;-82
2023/03/30 00:53:48;;;;;;;6.67;2.97;;;;;;;;;;5094630;28;20201;-82
2023/03/30 00:56:21;;;;;;;2.10;1.87;;;;;;;;;;5094149;28;20440;-82
2023/03/30 00:58:51;;;;;;;1.43;1.33;;;;;;;;;;5094493;28;20203;-82
2023/03/30 01:01:27;;;;;;;7.17;2.27;;;;;;;;;;5094676;28;20205;-82
2023/03/30 01:03:58;;;;;;;1.40;1.30;;;;;;;;;;5094513;28;20199;-82
2023/03/30 01:06:28;;;;;;;5.70;3.37;;;;;;;;;;5094275;28;20222;-82
2023/03/30 01:08:57;;;;;;;4.50;2.20;;;;;;;;;;5094271;28;20209;-82
2023/03/30 01:11:27;;;;;;;5.97;2.33;;;;;;;;;;5094268;28;20622;-83
2023/03/30 01:13:58;;;;;;;4.17;2.53;;;;;;;;;;5094299;28;20212;-82
2023/03/30 01:16:30;;;;;;;7.33;3.80;;;;;;;;;;5093933;28;20725;-82
2023/03/30 01:19:06;;;;;;;6.33;2.60;;;;;;;;;;5093656;28;20237;-82
2023/03/30 01:21:54;;;;;;;3.93;2.90;;;;;;;;;;5093762;28;20236;-82
2023/03/30 01:24:41;;;;;;;8.50;3.70;;;;;;;;;;5094097;28;20240;-82
2023/03/30 01:27:18;;;;;;;4.03;2.50;;;;;;;;;;5094149;28;20233;-82
2023/03/30 01:30:01;;;;;;;8.33;3.07;;;;;;;;;;5093361;28;20204;-82
2023/03/30 01:32:51;;;;;;;4.83;2.83;;;;;;;;;;5094002;28;20205;-82
2023/03/30 01:35:30;;;;;;;4.50;2.80;;;;;;;;;;5093840;28;20262;-82
2023/03/30 01:38:14;;;;;;;3.03;2.20;;;;;;;;;;5093422;28;20267;-82
2023/03/30 01:40:47;;;;;;;8.60;4.13;;;;;;;;;;5093614;28;20296;-82
2023/03/30 01:43:18;;;;;;;3.97;1.87;;;;;;;;;;5093734;28;20229;-82
2023/03/30 01:45:47;;;;;;;7.57;2.60;;;;;;;;;;5094014;28;20232;-82
2023/03/30 01:48:17;;;;;;;11.23;3.40;;;;;;;;;;5093370;28;20281;-82
2023/03/30 01:50:49;;;;;;;4.87;2.20;;;;;;;;;;5093286;28;20212;-82
2023/03/30 01:53:21;;;;;;;0.90;0.90;;;;;;;;;;5093514;28;20201;-82
2023/03/30 01:55:53;;;;;;;7.67;2.67;;;;;;;;;;5092663;28;20246;-82
2023/03/30 01:58:24;;;;;;;5.00;2.13;;;;;;;;;;5093210;28;20201;-82
2023/03/30 02:00:54;;;;;;;6.30;2.40;;;;;;;;;;5093065;28;20193;-82
2023/03/30 02:03:26;;;;;;;1.80;1.67;;;;;;;;;;5092801;28;20201;-82
2023/03/30 02:05:58;;;;;;;6.77;3.40;;;;;;;;;;5093237;28;20253;-82
2023/03/30 02:08:29;;;;;;;7.20;2.30;;;;;;;;;;5093008;28;20221;-82
2023/03/30 02:10:59;;;;;;;9.57;2.83;;;;;;;;;;5093366;28;20208;-82
2023/03/30 02:13:29;;;;;;;4.13;2.57;;;;;;;;;;5092885;28;20204;-82
2023/03/30 02:15:59;;;;;;;1.77;1.43;;;;;;;;;;5093080;28;20231;-82
2023/03/30 02:18:28;;;;;;;6.27;3.13;;;;;;;;;;5092851;28;20232;-82
2023/03/30 02:20:58;;;;;;;1.93;1.33;;;;;;;;;;5093226;28;20235;-82
2023/03/30 02:23:29;;;;;;;8.37;2.77;;;;;;;;;;5093277;28;20204;-82
2023/03/30 02:25:59;;;;;;;7.93;2.43;;;;;;;;;;5093083;28;20272;-82
2023/03/30 02:28:27;;;;;;;6.67;2.87;;;;;;;;;;5092806;28;20252;-82
2023/03/30 02:30:56;;;;;;;6.30;3.00;;;;;;;;;;5092864;28;20201;-82
2023/03/30 02:33:27;;;;;;;10.37;2.77;;;;;;;;;;5092673;28;20261;-82
2023/03/30 02:36:10;;;;;;;13.87;3.27;;;;;;;;;;5092596;28;20295;-82
2023/03/30 02:38:56;;;;;;;2.67;1.80;;;;;;;;;;5092868;28;20196;-82
2023/03/30 02:41:33;;;;;;;7.90;2.70;;;;;;;;;;5092881;28;20197;-82
2023/03/30 02:44:06;;;;;;;15.80;4.30;;;;;;;;;;5092661;28;20238;-82
2023/03/30 02:46:40;;;;;;;12.50;2.87;;;;;;;;;;5092499;28;20207;-82
2023/03/30 02:49:13;;;;;;;3.70;2.13;;;;;;;;;;5092645;28;20258;-82
2023/03/30 02:51:44;;;;;;;5.70;2.83;;;;;;;;;;5092817;28;20273;-82
2023/03/30 02:54:18;;;;;;;7.37;2.37;;;;;;;;;;5092801;28;20197;-82
2023/03/30 02:56:55;;;;;;;3.83;2.17;;;;;;;;;;5092465;28;20199;-82
2023/03/30 02:59:28;;;;;;;4.30;1.97;;;;;;;;;;5092521;28;20196;-82
2023/03/30 03:01:57;;;;;;;13.43;3.97;;;;;;;;;;5092718;28;20201;-82
2023/03/30 03:04:28;;;;;;;5.47;2.83;;;;;;;;;;5092578;28;20197;-82
2023/03/30 03:06:56;;;;;;;7.83;3.00;;;;;;;;;;5094088;28;20220;-82
2023/03/30 03:09:24;;;;;;;9.30;2.90;;;;;;;;;;5096690;28;20220;-82
2023/03/30 03:11:54;;;;;;;4.60;1.73;;;;;;;;;;5096326;28;20250;-82
2023/03/30 03:14:25;;;;;;;9.60;6.50;;;;;;;;;;5096622;28;20296;-82
2023/03/30 03:16:54;;;;;;;9.10;2.70;;;;;;;;;;5096387;28;20204;-82
2023/03/30 03:19:23;;;;;;;5.60;2.53;;;;;;;;;;5096032;28;20224;-82
2023/03/30 03:21:51;;;;;;;11.00;3.23;;;;;;;;;;5096068;28;20200;-82
2023/03/30 03:24:20;;;;;;;3.47;1.87;;;;;;;;;;5096597;28;20255;-82
2023/03/30 03:26:48;;;;;;;4.43;1.90;;;;;;;;;;5096032;28;20204;-82
2023/03/30 03:29:18;;;;;;;7.00;2.17;;;;;;;;;;5096010;28;20213;-82
2023/03/30 03:31:47;;;;;;;7.90;3.27;;;;;;;;;;5095912;28;20232;-82
2023/03/30 03:34:16;;;;;;;7.00;2.47;;;;;;;;;;5096136;28;20228;-82
2023/03/30 03:36:45;;;;;;;6.07;2.47;;;;;;;;;;5096025;28;20196;-82
2023/03/30 03:39:14;;;;;;;7.57;3.57;;;;;;;;;;5096055;28;20216;-82
2023/03/30 03:41:42;;;;;;;9.30;2.30;;;;;;;;;;5096069;28;20219;-82
2023/03/30 03:44:10;;;;;;;5.47;1.77;;;;;;;;;;5096056;28;20221;-82
2023/03/30 03:46:40;;;;;;;4.87;2.03;;;;;;;;;;5096225;28;20236;-82
2023/03/30 03:49:09;;;;;;;5.20;3.07;;;;;;;;;;5095441;28;20308;-82
2023/03/30 03:51:37;;;;;;;4.67;1.50;;;;;;;;;;5096095;28;20201;-82
2023/03/30 03:54:06;;;;;;;11.73;4.30;;;;;;;;;;5095636;28;20269;-82
2023/03/30 03:56:35;;;;;;;6.20;1.80;;;;;;;;;;5095538;28;20292;-82
2023/03/30 03:59:03;;;;;;;6.13;2.10;;;;;;;;;;5095207;28;20257;-82
2023/03/30 04:01:32;;;;;;;7.13;2.73;;;;;;;;;;5095781;28;20197;-82
2023/03/30 04:04:02;;;;;;;7.27;2.40;;;;;;;;;;5095229;28;20193;-82
2023/03/30 04:06:30;;;;;;;2.93;2.73;;;;;;;;;;5095491;28;20232;-82
2023/03/30 04:08:59;;;;;;;4.33;2.43;;;;;;;;;;5095276;28;20228;-82
2023/03/30 04:11:28;;;;;;;13.47;2.77;;;;;;;;;;5095023;28;20208;-82
2023/03/30 04:13:56;;;;;;;9.47;2.70;;;;;;;;;;5095387;28;20205;-82
2023/03/30 04:16:25;;;;;;;5.03;1.87;;;;;;;;;;5095012;28;20201;-82
2023/03/30 04:18:53;;;;;;;9.27;3.40;;;;;;;;;;5093956;28;20232;-82
2023/03/30 04:21:24;;;;;;;4.13;3.00;;;;;;;;;;5095008;28;20197;-82
2023/03/30 04:23:52;;;;;;;7.00;3.23;;;;;;;;;;5094954;28;20243;-82
2023/03/30 04:26:20;;;;;;;3.97;2.53;;;;;;;;;;5094790;28;20305;-82
2023/03/30 04:28:52;;;;;;;7.83;3.27;;;;;;;;;;5095261;28;20205;-82
2023/03/30 04:31:21;;;;;;;8.83;3.03;;;;;;;;;;5094718;28;20246;-82
2023/03/30 04:33:53;;;;;;;6.43;2.40;;;;;;;;;;5095420;28;20212;-82
2023/03/30 04:36:23;;;;;;;10.67;4.03;;;;;;;;;;5094894;28;20208;-82
2023/03/30 04:38:58;;;;;;;10.63;4.17;;;;;;;;;;5094728;28;20256;-82
2023/03/30 04:41:32;;;;;;;8.60;2.60;;;;;;;;;;5094471;28;20211;-82
2023/03/30 04:44:02;;;;;;;19.17;3.17;;;;;;;;;;5094435;28;20195;-82
2023/03/30 04:46:30;;;;;;;6.77;1.87;;;;;;;;;;5094802;28;20228;-82
2023/03/30 04:48:58;;;;;;;7.50;3.33;;;;;;;;;;5094183;28;20232;-82
2023/03/30 04:51:28;;;;;;;10.23;3.20;;;;;;;;;;5094024;28;20319;-82
2023/03/30 04:53:56;;;;;;;10.40;4.27;;;;;;;;;;5094214;28;20292;-82
2023/03/30 04:56:25;;;;;;;15.97;5.37;;;;;;;;;;5094199;28;20209;-82
2023/03/30 04:58:53;;;;;;;8.33;4.23;;;;;;;;;;5094322;28;20295;-82
2023/03/30 05:01:23;;;;;;;18.63;5.40;;;;;;;;;;5094158;28;20193;-82
2023/03/30 05:03:51;;;;;;;13.97;5.30;;;;;;;;;;5094137;28;20200;-82
2023/03/30 05:06:20;;;;;;;16.10;4.70;;;;;;;;;;5094034;28;20220;-82
2023/03/30 05:08:50;;;;;;;11.57;3.73;;;;;;;;;;5093883;28;20195;-81
2023/03/30 05:11:18;;;;;;;18.47;3.87;;;;;;;;;;5093733;28;20217;-82
2023/03/30 05:13:47;;;;;;;16.97;3.70;;;;;;;;;;5093875;28;20200;-82
2023/03/30 05:16:16;;;;;;;23.87;5.70;;;;;;;;;;5093628;28;20201;-82
2023/03/30 05:18:44;;;;;;;9.80;3.27;;;;;;;;;;5093655;28;20240;-82
2023/03/30 05:21:13;;;;;;;19.80;6.07;;;;;;;;;;5093986;28;20210;-82
2023/03/30 05:23:41;;;;;;;16.17;4.20;;;;;;;;;;5093803;28;20205;-81
2023/03/30 05:26:11;;;;;;;13.63;4.97;;;;;;;;;;5093477;28;20196;-82
2023/03/30 05:28:41;;;;;;;10.27;3.53;;;;;;;;;;5093263;28;20201;-82
2023/03/30 05:31:10;;;;;;;19.77;7.77;;;;;;;;;;5093545;28;20213;-82
2023/03/30 05:33:39;;;;;;;16.27;3.43;;;;;;;;;;5093806;28;20283;-82
2023/03/30 05:36:11;;;;;;;6.50;2.70;;;;;;;;;;5093535;28;20229;-83
2023/03/30 05:38:39;;;;;;;11.77;3.93;;;;;;;;;;5093608;28;20304;-82
2023/03/30 05:41:08;;;;;;;6.13;3.03;;;;;;;;;;5093480;28;20286;-82
2023/03/30 05:43:38;;;;;;;26.33;6.23;;;;;;;;;;5093260;28;20291;-82
2023/03/30 05:46:07;;;;;;;16.60;6.17;;;;;;;;;;5093577;28;20201;-82
2023/03/30 05:48:35;;;;;;;20.43;6.00;;;;;;;;;;5093344;28;20301;-82
2023/03/30 05:51:04;;;;;;;7.10;3.27;;;;;;;;;;5093056;28;20240;-82
2023/03/30 05:53:33;;;;;;;20.47;5.37;;;;;;;;;;5093033;28;20291;-82
2023/03/30 05:56:01;;;;;;;14.87;4.73;;;;;;;;;;5093002;28;20209;-83
2023/03/30 05:58:29;;;;;;;19.67;5.13;;;;;;;;;;5093222;28;20201;-82
2023/03/30 06:00:59;;;;;;;13.57;4.47;;;;;;;;;;5092939;28;20197;-82
2023/03/30 06:03:28;;;;;;;9.73;3.37;;;;;;;;;;5093150;28;20211;-82
2023/03/30 06:05:57;;;;;;;14.47;4.33;;;;;;;;;;5092980;28;20217;-83
2023/03/30 06:08:26;;;;;;;18.80;5.73;;;;;;;;;;5093020;28;20307;-82
2023/03/30 06:10:55;;;;;;;19.13;6.13;;;;;;;;;;5092693;28;20309;-82
2023/03/30 06:13:25;;;;;;;20.33;4.73;;;;;;;;;;5092862;28;20291;-82
2023/03/30 06:15:53;;;;;;;16.57;4.20;;;;;;;;;;5092683;28;20236;-83
2023/03/30 06:18:23;;;;;;;14.33;5.43;;;;;;;;;;5092609;28;20291;-83
2023/03/30 06:20:52;;;;;;;14.70;4.50;;;;;;;;;;5092807;28;20231;-82
2023/03/30 06:23:21;;;;;;;17.10;3.97;;;;;;;;;;5092903;28;20217;-82
2023/03/30 06:25:52;;;;;;;15.03;4.87;;;;;;;;;;5092194;28;20257;-83
2023/03/30 06:28:21;;;;;;;18.83;4.33;;;;;;;;;;5092591;28;20214;-82
2023/03/30 06:30:50;;;;;;;11.00;4.20;;;;;;;;;;5092527;28;20216;-82
2023/03/30 06:33:19;;;;;;;16.47;5.03;;;;;;;;;;5092296;28;20292;-83
2023/03/30 06:35:49;;;;;;;8.27;4.33;;;;;;;;;;5092709;28;20197;-83
2023/03/30 06:38:19;;;;;;;10.17;4.37;;;;;;;;;;5092401;28;20205;-82
2023/03/30 06:40:47;;;;;;;19.50;5.37;;;;;;;;;;5092113;28;20299;-82
2023/03/30 06:43:17;;;;;;;11.90;5.60;;;;;;;;;;5092006;28;20261;-83
2023/03/30 06:45:50;;;;;;;12.70;4.93;;;;;;;;;;5092741;28;20203;-84
2023/03/30 06:48:21;;;;;;;14.90;4.83;;;;;;;;;;5092116;28;20189;-84
2023/03/30 06:50:51;;;;;;;14.47;5.73;;;;;;;;;;5092125;28;20217;-84
2023/03/30 06:53:20;;;;;;;16.67;4.30;;;;;;;;;;5092452;28;20295;-84
2023/03/30 06:55:51;;;;;;;21.57;5.17;;;;;;;;;;5092719;28;20201;-84
2023/03/30 06:58:20;;;;;;;15.20;6.67;;;;;;;;;;5092734;28;20197;-85
2023/03/30 07:00:49;;;;;;;12.43;4.80;;;;;;;;;;5092299;28;20228;-84
2023/03/30 07:03:18;;;;;;;14.00;4.43;;;;;;;;;;5092514;28;20193;-84
2023/03/30 07:05:47;;;;;;;14.90;4.57;;;;;;;;;;5092782;28;20225;-85
2023/03/30 07:08:18;;;;;;;13.93;5.17;;;;;;;;;;5092366;28;20201;-84
2023/03/30 07:10:47;;;;;;;11.60;4.10;;;;;;;;;;5092343;28;20212;-84
2023/03/30 07:13:16;;;;;;;19.23;5.30;;;;;;;;;;5092502;28;20250;-84
2023/03/30 07:15:45;;;;;;;15.63;3.90;;;;;;;;;;5092469;28;20276;-84
2023/03/30 07:18:15;;;;;;;11.77;4.13;;;;;;;;;;5092200;28;20215;-84
2023/03/30 07:20:44;;;;;;;12.43;3.37;;;;;;;;;;5092325;28;20296;-84
2023/03/30 07:23:13;;;;;;;26.40;7.00;;;;;;;;;;5092321;28;20254;-84
2023/03/30 07:25:44;;;;;;;12.70;4.27;;;;;;;;;;5091870;28;20197;-84
2023/03/30 07:28:13;;;;;;;14.03;4.07;;;;;;;;;;5092092;28;20225;-85
2023/03/30 07:30:43;;;;;;;17.80;4.83;;;;;;;;;;5092089;28;20262;-84
2023/03/30 07:33:13;;;;;;;14.50;3.73;;;;;;;;;;5092062;28;20204;-84
2023/03/30 07:35:54;;;;;;;11.60;3.30;;;;;;;;;;5092335;28;20221;-84
2023/03/30 07:38:22;;;;;;;15.97;4.17;;;;;;;;;;5092029;28;20205;-85
2023/03/30 07:40:52;;;;;;;15.13;4.33;;;;;;;;;;5092017;28;20197;-84
2023/03/30 07:43:21;;;;;;;15.60;4.30;;;;;;;;;;5091905;28;20263;-84
2023/03/30 07:45:50;;;;;;;19.83;5.60;;;;;;;;;;5091630;28;20201;-83
2023/03/30 07:48:18;;;;;;;16.03;5.07;;;;;;;;;;5092218;28;20204;-82
2023/03/30 07:50:47;;;;;;;14.97;5.03;;;;;;;;;;5091957;28;20250;-83
2023/03/30 07:53:16;;;;;;;15.33;5.73;;;;;;;;;;5092047;28;20209;-83
2023/03/30 07:55:44;;;;;;;20.53;6.87;;;;;;;;;;5095499;28;20201;-83
2023/03/30 07:58:14;;;;;;;15.37;4.73;;;;;;;;;;5095652;28;20296;-83
2023/03/30 08:00:43;;;;;;;15.60;7.23;;;;;;;;;;5095712;28;20197;-83
2023/03/30 08:03:12;;;;;;;16.93;4.47;;;;;;;;;;5095617;28;20212;-83
2023/03/30 08:05:41;;;;;;;14.60;4.10;;;;;;;;;;5095811;28;20406;-83
2023/03/30 08:08:09;;;;;;;9.17;2.87;;;;;;;;;;5095204;28;20240;-83
2023/03/30 08:10:38;;;;;;;15.83;4.80;;;;;;;;;;5095425;28;20197;-83
2023/03/30 08:13:06;;;;;;;10.97;4.90;;;;;;;;;;5095019;28;20225;-83
2023/03/30 08:15:36;;;;;;;25.00;6.10;;;;;;;;;;5094904;28;20292;-83
2023/03/30 08:18:06;;;;;;;20.83;4.73;;;;;;;;;;5094997;28;20196;-82
2023/03/30 08:20:36;;;;;;;20.33;5.97;;;;;;;;;;5095355;28;20232;-83
2023/03/30 08:23:05;;;;;;;18.00;4.83;;;;;;;;;;5095050;28;20197;-83
2023/03/30 08:25:34;;;;;;;21.97;5.63;;;;;;;;;;5094956;28;20308;-83
2023/03/30 08:28:03;;;;;;;23.60;8.10;;;;;;;;;;5094878;28;20201;-83
2023/03/30 08:30:31;;;;;;;16.50;4.93;;;;;;;;;;5094721;28;20197;-83
2023/03/30 08:33:01;;;;;;;18.80;6.00;;;;;;;;;;5094979;28;20331;-83
2023/03/30 08:35:30;;;;;;;16.07;4.73;;;;;;;;;;5095105;28;20197;-83
2023/03/30 08:37:58;;;;;;;16.20;6.47;;;;;;;;;;5095004;28;20197;-83
2023/03/30 08:40:27;;;;;;;21.37;7.50;;;;;;;;;;5094633;28;20201;-83
2023/03/30 08:43:05;;;;;;;19.90;6.80;;;;;;;;;;5094800;28;20288;-83
2023/03/30 08:45:35;;;;;;;24.17;5.77;;;;;;;;;;5094960;28;20209;-83
2023/03/30 08:48:13;;;;;;;18.47;5.63;;;;;;;;;;5094693;28;20201;-83
2023/03/30 08:50:43;;;;;;;20.97;7.60;;;;;;;;;;5094723;28;20236;-83
2023/03/30 08:53:12;;;;;;;22.37;6.17;;;;;;;;;;5094040;28;20220;-83
2023/03/30 08:55:43;;;;;;;7.13;3.07;;;;;;;;;;5094338;28;20186;-83
2023/03/30 08:58:16;;;;;;;8.60;3.57;;;;;;;;;;5094324;28;20212;-82
2023/03/30 09:00:46;;;;;;;20.67;7.10;;;;;;;;;;5094010;28;20202;-83
2023/03/30 09:03:19;;;;;;;19.03;6.10;;;;;;;;;;5093959;28;20201;-83
2023/03/30 09:05:51;;;;;;;23.43;7.00;;;;;;;;;;5093664;28;20221;-83
2023/03/30 09:08:21;;;;;;;19.87;4.27;;;;;;;;;;5093747;28;20199;-83
2023/03/30 09:10:53;;;;;;;9.03;4.20;;;;;;;;;;5093924;28;20190;-83
2023/03/30 09:13:24;;;;;;;18.23;5.17;;;;;;;;;;5094233;28;20222;-82
2023/03/30 09:15:55;;;;;;;10.07;3.67;;;;;;;;;;5093982;28;20231;-83
2023/03/30 09:18:28;;;;;;;25.07;6.87;;;;;;;;;;5093893;28;20197;-83
2023/03/30 09:20:59;;;;;;;29.30;6.30;;;;;;;;;;5093953;28;20244;-83
2023/03/30 09:23:29;;;;;;;27.73;6.07;;;;;;;;;;5093734;28;20207;-83
2023/03/30 09:26:02;;;;;;;11.73;3.80;;;;;;;;;;5093665;28;20256;-83
2023/03/30 09:28:34;;;;;;;24.97;6.53;;;;;;;;;;5093898;28;20237;-82
2023/03/30 09:31:03;;;;;;;22.90;4.93;;;;;;;;;;5094152;28;20208;-82
2023/03/30 09:33:38;;;;;;;21.57;6.93;;;;;;;;;;5093301;28;20215;-83
2023/03/30 09:36:21;;;;;;;16.40;4.47;;;;;;;;;;5093392;28;20300;-83
2023/03/30 09:38:53;;;;;;;16.93;6.70;;;;;;;;;;5096202;27;20197;-83
2023/03/30 09:41:39;;;;;;;13.30;4.80;;;;;;;;;;5105990;28;20205;-83
2023/03/30 09:44:14;;;;;;;13.67;5.57;;;;;;;;;;5098539;28;20197;-83
2023/03/30 09:46:45;;;;;;;19.80;6.87;;;;;;;;;;5093518;28;20201;-83
2023/03/30 09:49:16;;;;;;;11.47;6.23;;;;;;;;;;5092734;28;20197;-82
2023/03/30 09:51:53;;;;;;;38.40;8.30;;;;;;;;;;5093483;28;20261;-83
2023/03/30 09:54:23;;;;;;;23.80;5.73;;;;;;;;;;5096983;28;20204;-83
2023/03/30 09:56:55;;;;;;;21.07;5.70;;;;;;;;;;5109406;28;20209;-83
2023/03/30 09:59:30;;;;;;;19.33;5.17;;;;;;;;;;5094642;28;20207;-83
2023/03/30 10:02:11;;;;;;;13.10;5.93;;;;;;;;;;5093237;28;20197;-83
2023/03/30 10:04:56;;;;;;;18.50;6.43;;;;;;;;;;5092878;28;20220;-82
2023/03/30 10:07:26;;;;;;;21.57;5.93;;;;;;;;;;5098472;28;20339;-83
2023/03/30 10:09:55;;;;;;;27.97;7.30;;;;;;;;;;5107432;28;20205;-83
2023/03/30 10:12:24;;;;;;;27.67;7.67;;;;;;;;;;5109644;28;20244;-82
2023/03/30 10:14:57;;;;;;;21.40;7.33;;;;;;;;;;5098700;28;20247;-83
2023/03/30 10:17:26;;;;;;;23.03;4.83;;;;;;;;;;5105757;28;20212;-83
2023/03/30 10:20:15;;;;;;;38.50;10.97;;;;;;;;;;5107745;28;20239;-83
2023/03/30 10:22:51;;;;;;;19.43;6.13;;;;;;;;;;5092724;28;20268;-83
2023/03/30 10:25:22;;;;;;;17.80;5.97;;;;;;;;;;5104787;28;20208;-83
2023/03/30 10:27:54;;;;;;;6.80;2.83;;;;;;;;;;5105814;28;20210;-83
2023/03/30 10:30:24;;;;;;;26.03;7.23;;;;;;;;;;5111710;28;20232;-83
2023/03/30 10:32:53;;;;;;;14.37;3.93;;;;;;;;;;5106999;28;20216;-83
2023/03/30 10:35:23;;;;;;;16.10;6.80;;;;;;;;;;5093435;28;20211;-83
2023/03/30 10:37:55;;;;;;;23.77;6.30;;;;;;;;;;5092038;28;20209;-83
2023/03/30 10:40:26;;;;;;;20.10;5.97;;;;;;;;;;5092345;28;20201;-85
2023/03/30 10:42:57;;;;;;;18.47;5.83;;;;;;;;;;5109529;28;20198;-84
2023/03/30 10:45:28;;;;;;;19.47;6.10;;;;;;;;;;5109631;28;20213;-84
2023/03/30 10:48:06;;;;;;;25.10;6.80;;;;;;;;;;5096869;28;20239;-84
2023/03/30 10:50:40;;;;;;;27.40;6.83;;;;;;;;;;5092064;28;20293;-84
2023/03/30 10:53:19;;;;;;;11.27;4.67;;;;;;;;;;5091103;28;20253;-84
2023/03/30 10:55:50;;;;;;;18.83;4.57;;;;;;;;;;5099113;28;20210;-85
2023/03/30 10:58:26;;;;;;;19.13;5.97;;;;;;;;;;5107196;28;20207;-84
2023/03/30 11:01:01;;;;;;;13.53;4.00;;;;;;;;;;5091957;28;20221;-83
2023/03/30 11:03:31;;;;;;;17.93;4.43;;;;;;;;;;5108261;28;20198;-83
2023/03/30 11:06:04;;;;;;;27.27;6.93;;;;;;;;;;5097536;28;20309;-84
2023/03/30 11:08:38;;;;;;;19.53;6.07;;;;;;;;;;5097842;28;20203;-83
2023/03/30 11:11:07;;;;;;;21.53;7.23;;;;;;;;;;5099926;28;20215;-83
2023/03/30 11:13:42;;;;;;;21.57;6.30;;;;;;;;;;5102966;28;20217;-83
2023/03/30 11:16:21;;;;;;;29.37;9.23;;;;;;;;;;5094000;28;20225;-83
2023/03/30 11:18:54;;;;;;;19.93;6.03;;;;;;;;;;5092109;28;20264;-83
2023/03/30 11:21:30;;;;;;;28.13;5.77;;;;;;;;;;5092477;28;20200;-84
2023/03/30 11:24:07;;;;;;;22.20;6.17;;;;;;;;;;5092274;28;20274;-84
2023/03/30 11:26:38;;;;;;;13.80;4.63;;;;;;;;;;5091335;28;20202;-85
2023/03/30 11:29:14;;;;;;;12.30;3.33;;;;;;;;;;5095729;28;20206;-85
2023/03/30 11:31:49;;;;;;;17.93;6.53;;;;;;;;;;5095492;28;20199;-85
2023/03/30 11:34:22;;;;;;;30.37;6.37;;;;;;;;;;5095802;28;20289;-84
2023/03/30 11:36:55;;;;;;;23.70;7.10;;;;;;;;;;5095520;28;20247;-86
2023/03/30 11:39:30;;;;;;;20.17;5.90;;;;;;;;;;5095638;28;20198;-85
2023/03/30 11:42:08;;;;;;;22.13;5.70;;;;;;;;;;5095339;28;20272;-85
2023/03/30 11:44:37;;;;;;;21.83;6.00;;;;;;;;;;5095195;28;20217;-85
2023/03/30 11:47:12;;;;;;;18.37;5.13;;;;;;;;;;5095716;28;20190;-85
2023/03/30 11:49:52;;;;;;;22.63;5.63;;;;;;;;;;5095465;28;20201;-85
2023/03/30 11:52:26;;;;;;;33.70;8.90;;;;;;;;;;5094423;28;20197;-84
2023/03/30 11:55:12;;;;;;;33.27;9.73;;;;;;;;;;5095094;28;20288;-85
2023/03/30 11:57:45;;;;;;;7.90;4.03;;;;;;;;;;5092909;28;20225;-85
2023/03/30 12:00:27;;;;;;;18.40;7.40;;;;;;;;;;5095837;28;20214;-85
2023/03/30 12:03:01;;;;;;;25.33;5.13;;;;;;;;;;5095220;28;20230;-85
2023/03/30 12:05:32;;;;;;;22.67;6.40;;;;;;;;;;5094996;28;20221;-85
2023/03/30 12:08:04;;;;;;;26.10;6.57;;;;;;;;;;5095123;28;20239;-86
2023/03/30 12:10:35;;;;;;;11.30;6.03;;;;;;;;;;5095448;28;20202;-85
2023/03/30 12:13:05;;;;;;;17.37;6.90;;;;;;;;;;5094880;28;20205;-85
2023/03/30 12:15:39;;;;;;;17.37;5.83;;;;;;;;;;5094885;28;20218;-85
2023/03/30 12:18:12;;;;;;;18.57;7.20;;;;;;;;;;5094571;28;20215;-85
2023/03/30 12:20:44;;;;;;;17.07;4.87;;;;;;;;;;5094330;28;20197;-85
2023/03/30 12:23:21;;;;;;;15.57;4.73;;;;;;;;;;5095224;28;20197;-85
2023/03/30 12:26:05;;;;;;;12.60;4.60;;;;;;;;;;5094500;28;20200;-84
2023/03/30 12:28:44;;;;;;;20.27;6.43;;;;;;;;;;5094549;28;20210;-85
2023/03/30 12:31:49;;;;;;;21.80;6.73;;;;;;;;;;5094443;28;20206;-85
2023/03/30 12:34:18;;;;;;;13.50;4.23;;;;;;;;;;5094518;28;20278;-85
2023/03/30 12:36:48;;;;;;;20.43;6.83;;;;;;;;;;5094686;28;20226;-85
2023/03/30 12:39:20;;;;;;;11.20;3.43;;;;;;;;;;5093775;28;20198;-85
2023/03/30 12:41:49;;;;;;;36.67;6.87;;;;;;;;;;5094299;28;20214;-86
2023/03/30 12:44:25;;;;;;;18.07;5.47;;;;;;;;;;5094165;28;20198;-85
2023/03/30 12:47:00;;;;;;;21.90;6.40;;;;;;;;;;5101900;28;20212;-83
2023/03/30 12:49:37;;;;;;;17.20;4.17;;;;;;;;;;5097561;28;20209;-85
2023/03/30 12:52:09;;;;;;;31.80;5.83;;;;;;;;;;5098686;28;20205;-85
2023/03/30 12:54:50;;;;;;;21.10;5.63;;;;;;;;;;5113612;28;20240;-85
2023/03/30 12:57:24;;;;;;;8.37;3.67;;;;;;;;;;5114268;28;20217;-85
2023/03/30 13:00:03;;;;;;;24.20;6.60;;;;;;;;;;5114816;28;20292;-85
2023/03/30 13:02:53;;;;;;;15.10;4.60;;;;;;;;;;5112957;28;20214;-85
2023/03/30 13:05:25;;;;;;;25.33;8.10;;;;;;;;;;5106269;27;20224;-83
2023/03/30 13:07:58;;;;;;;20.63;6.77;;;;;;;;;;5099600;28;20207;-83
2023/03/30 13:10:41;;;;;;;14.20;3.60;;;;;;;;;;5105214;28;20210;-83
2023/03/30 13:13:17;;;;;;;21.80;6.53;;;;;;;;;;5095087;28;20231;-83
2023/03/30 13:15:54;;;;;;;20.83;7.30;;;;;;;;;;5093290;28;20217;-85
2023/03/30 13:18:33;;;;;;;21.70;7.53;;;;;;;;;;5099038;28;20217;-85
2023/03/30 13:21:07;;;;;;;14.57;7.73;;;;;;;;;;5101720;28;20280;-85
2023/03/30 13:23:38;;;;;;;30.77;7.50;;;;;;;;;;5099354;28;20212;-85
2023/03/30 13:26:22;;;;;;;20.43;5.67;;;;;;;;;;5095636;28;20197;-85
2023/03/30 13:29:07;;;;;;;23.77;8.07;;;;;;;;;;5103216;28;20236;-85
2023/03/30 13:31:44;;;;;;;16.73;6.43;;;;;;;;;;5099336;28;20237;-85
2023/03/30 13:34:19;;;;;;;23.10;7.23;;;;;;;;;;5102900;28;20201;-85
2023/03/30 13:36:54;;;;;;;16.63;7.10;;;;;;;;;;5093240;28;20198;-85
2023/03/30 13:39:26;;;;;;;16.73;6.03;;;;;;;;;;5097880;28;20196;-85
2023/03/30 13:42:00;;;;;;;18.27;8.43;;;;;;;;;;5098742;28;20201;-85
2023/03/30 13:44:47;;;;;;;19.03;6.20;;;;;;;;;;5093172;28;20201;-85
2023/03/30 13:47:27;;;;;;;13.77;4.53;;;;;;;;;;5103178;28;20204;-84
2023/03/30 13:49:59;;;;;;;20.70;5.50;;;;;;;;;;5112096;28;20204;-85
2023/03/30 13:52:31;;;;;;;11.80;4.63;;;;;;;;;;5097456;28;20234;-85
2023/03/30 13:55:00;;;;;;;27.03;6.87;;;;;;;;;;5093355;28;20213;-84
2023/03/30 13:57:31;;;;;;;16.13;6.20;;;;;;;;;;5101924;28;20203;-85
2023/03/30 14:00:04;;;;;;;23.27;5.57;;;;;;;;;;5097295;28;20194;-85
2023/03/30 14:02:48;;;;;;;27.37;8.23;;;;;;;;;;5113223;28;20188;-85
2023/03/30 14:05:23;;;;;;;22.70;5.73;;;;;;;;;;5101960;28;20228;-85
2023/03/30 14:07:52;;;;;;;13.63;4.50;;;;;;;;;;5093649;28;20239;-85
2023/03/30 14:10:22;;;;;;;27.77;7.43;;;;;;;;;;5103873;28;20211;-85
2023/03/30 14:12:52;;;;;;;33.93;10.47;;;;;;;;;;5098519;27;20208;-84
2023/03/30 14:15:22;;;;;;;23.43;6.73;;;;;;;;;;5104175;28;20217;-84
2023/03/30 14:17:52;;;;;;;21.97;5.73;;;;;;;;;;5090731;28;20207;-84
2023/03/30 14:20:30;;;;;;;26.77;8.13;;;;;;;;;;5091863;28;20257;-85
2023/03/30 14:22:59;;;;;;;17.63;4.03;;;;;;;;;;5109024;28;20212;-85
2023/03/30 14:25:29;;;;;;;18.17;4.53;;;;;;;;;;5110216;28;20247;-85
2023/03/30 14:28:03;;;;;;;11.03;4.10;;;;;;;;;;5109761;28;20206;-84
2023/03/30 14:30:33;;;;;;;27.03;5.80;;;;;;;;;;5092927;28;20254;-83
2023/03/30 14:33:10;;;;;;;28.10;7.00;;;;;;;;;;5092580;28;20205;-83
2023/03/30 14:35:41;;;;;;;9.10;2.73;;;;;;;;;;5092670;28;20266;-83
2023/03/30 14:38:15;;;;;;;20.97;7.33;;;;;;;;;;5092928;28;20216;-83
2023/03/30 14:40:46;;;;;;;32.73;8.50;;;;;;;;;;5092461;28;20232;-83
2023/03/30 14:43:16;;;;;;;26.20;7.20;;;;;;;;;;5092853;28;20293;-82
2023/03/30 14:45:45;;;;;;;24.07;6.37;;;;;;;;;;5092769;28;20198;-83
2023/03/30 14:48:23;;;;;;;20.13;6.80;;;;;;;;;;5092889;28;20197;-83
2023/03/30 14:50:53;;;;;;;15.13;6.20;;;;;;;;;;5092305;28;20201;-83
2023/03/30 14:53:24;;;;;;;10.60;4.43;;;;;;;;;;5092517;28;20202;-82
2023/03/30 14:55:55;;;;;;;28.13;5.30;;;;;;;;;;5092365;28;20233;-83
2023/03/30 14:58:25;;;;;;;19.10;6.87;;;;;;;;;;5091890;28;20196;-82
2023/03/30 15:00:57;;;;;;;15.40;5.47;;;;;;;;;;5092956;28;20226;-83